Time;durP1;ratioP1;P1;durP2;ratioP2;P2;SDS_P1;SDS_P2;PMS_P1;PMS_P2;Temp;Humidity;BMP_temperature;BMP_pressure;BME280_temperature;BME280_humidity;BME280_pressure;Samples;Min_cycle;Max_cycle;Signal;HPM_P1;HPM_P2
2022/10/03 00:02:00;;;;;;;7.45;1.98;;;;;;;12.26;100.00;101313.94;4824196;29;20065;-90
2022/10/03 00:05:01;;;;;;;6.05;1.85;;;;;;;12.21;100.00;101309.06;4746591;30;20397;-90
2022/10/03 00:07:58;;;;;;;4.38;1.48;;;;;;;12.21;100.00;101321.44;4773661;30;20138;-90
2022/10/03 00:10:44;;;;;;;5.95;2.05;;;;;;;12.15;100.00;101318.34;4824028;29;20054;-90
2022/10/03 00:13:24;;;;;;;9.65;1.80;;;;;;;12.14;100.00;101315.84;4839306;29;20026;-90
2022/10/03 00:16:19;;;;;;;8.23;1.60;;;;;;;12.11;100.00;101305.50;4810100;29;20041;-89
2022/10/03 00:19:07;;;;;;;9.75;1.83;;;;;;;12.08;100.00;101306.63;4833383;29;20050;-89
2022/10/03 00:22:02;;;;;;;9.93;2.28;;;;;;;12.07;100.00;101309.38;4809315;29;20121;-90
2022/10/03 00:24:39;;;;;;;8.02;1.77;;;;;;;12.03;100.00;101304.34;4778399;29;20061;-90
2022/10/03 00:27:28;;;;;;;8.27;1.80;;;;;;;12.03;100.00;101301.69;4813668;29;20123;-90
2022/10/03 00:30:03;;;;;;;6.75;2.05;;;;;;;12.04;100.00;101303.34;4834905;29;20042;-89
2022/10/03 00:32:53;;;;;;;4.95;1.98;;;;;;;12.06;100.00;101307.69;4813824;29;20034;-89
2022/10/03 00:36:05;;;;;;;16.15;2.40;;;;;;;11.99;100.00;101310.03;4838941;29;20046;-89
2022/10/03 00:38:59;;;;;;;5.97;1.75;;;;;;;11.96;100.00;101303.16;4773462;30;20063;-89
2022/10/03 00:41:29;;;;;;;5.82;2.05;;;;;;;11.97;100.00;101309.31;4828859;29;20054;-89
2022/10/03 00:44:11;;;;;;;11.15;2.30;;;;;;;11.98;100.00;101311.00;4858807;29;20061;-88
2022/10/03 00:46:52;;;;;;;9.88;2.35;;;;;;;11.96;100.00;101305.81;4825493;29;20488;-89
2022/10/03 00:49:55;;;;;;;9.98;2.53;;;;;;;11.96;100.00;101312.94;4810864;29;20038;-89
2022/10/03 00:52:55;;;;;;;12.18;2.65;;;;;;;11.91;100.00;101311.50;4795082;29;20194;-89
2022/10/03 00:55:39;;;;;;;8.10;1.85;;;;;;;11.91;100.00;101308.88;4811538;29;20049;-89
2022/10/03 00:58:11;;;;;;;13.43;2.25;;;;;;;11.90;100.00;101309.00;4840799;29;20050;-89
2022/10/03 01:00:47;;;;;;;4.97;1.73;;;;;;;11.91;100.00;101321.28;4815670;29;20489;-89
2022/10/03 01:03:29;;;;;;;12.85;2.25;;;;;;;11.89;100.00;101320.59;4825519;29;20399;-88
2022/10/03 01:06:14;;;;;;;8.98;2.05;;;;;;;11.91;100.00;101324.75;4848082;29;20042;-89
2022/10/03 01:09:05;;;;;;;6.13;1.70;;;;;;;11.89;100.00;101318.78;4805902;29;20142;-90
2022/10/03 01:11:38;;;;;;;9.27;2.40;;;;;;;11.87;100.00;101326.00;4808086;29;20046;-89
2022/10/03 01:14:31;;;;;;;11.32;1.75;;;;;;;11.87;100.00;101327.81;4839380;29;20046;-90
2022/10/03 01:17:26;;;;;;;10.38;2.90;;;;;;;11.86;100.00;101315.53;4841254;29;20054;-90
2022/10/03 01:20:06;;;;;;;7.97;1.83;;;;;;;11.85;100.00;101316.53;4817539;29;20080;-90
2022/10/03 01:22:50;;;;;;;6.30;2.25;;;;;;;11.83;100.00;101316.66;4836307;29;20076;-89
2022/10/03 01:25:32;;;;;;;4.47;2.00;;;;;;;11.82;100.00;101312.31;4842759;29;20034;-89
2022/10/03 01:31:12;;;;;;;11.60;2.22;;;;;;;11.86;100.00;101300.50;4811980;29;20073;-90
2022/10/03 01:34:01;;;;;;;7.03;2.10;;;;;;;11.91;100.00;101295.63;4808673;29;20093;-90
2022/10/03 01:36:41;;;;;;;9.02;1.95;;;;;;;11.94;100.00;101293.69;4822686;29;20041;-91
2022/10/03 01:39:10;;;;;;;7.15;2.28;;;;;;;11.96;100.00;101295.22;4825231;29;20037;-90
2022/10/03 01:41:59;;;;;;;5.43;1.77;;;;;;;11.99;100.00;101294.13;4844609;29;20082;-90
2022/10/03 01:44:52;;;;;;;7.60;2.05;;;;;;;11.99;100.00;101289.66;4797216;29;20046;-90
2022/10/03 01:47:28;;;;;;;9.15;3.03;;;;;;;11.94;100.00;101291.88;4857086;29;20475;-90
2022/10/03 01:50:14;;;;;;;5.90;2.10;;;;;;;11.86;100.00;101281.09;4803231;29;20463;-89
2022/10/03 01:52:53;;;;;;;;;;;;;;;11.68;100.00;101281.72;4823394;29;20084;-89
2022/10/03 01:55:35;;;;;;;5.63;1.90;;;;;;;11.72;100.00;101275.16;4804503;29;19979;-89
2022/10/03 01:58:21;;;;;;;7.00;2.10;;;;;;;11.75;100.00;101282.03;4832594;29;20049;-89
2022/10/03 02:01:15;;;;;;;10.90;2.40;;;;;;;11.74;100.00;101278.53;4821503;29;20066;-90
2022/10/03 02:04:03;;;;;;;13.40;1.95;;;;;;;11.77;100.00;101272.97;4825829;29;20267;-90
2022/10/03 02:06:41;;;;;;;7.15;2.47;;;;;;;11.78;100.00;101277.28;4823116;29;20049;-90
2022/10/03 02:09:35;;;;;;;6.13;1.70;;;;;;;11.81;100.00;101276.22;4838674;29;20050;-89
2022/10/03 02:12:21;;;;;;;7.03;1.63;;;;;;;11.83;100.00;101271.63;4822023;29;20124;-90
2022/10/03 02:15:00;;;;;;;6.80;1.45;;;;;;;11.86;100.00;101263.41;4827781;29;20065;-89
2022/10/03 02:18:02;;;;;;;5.53;1.73;;;;;;;11.88;100.00;101271.22;4819682;29;20042;-90
2022/10/03 02:20:45;;;;;;;7.45;1.60;;;;;;;11.87;100.00;101261.59;4835683;29;20398;-89
2022/10/03 02:23:37;;;;;;;10.10;2.00;;;;;;;11.83;100.00;101252.22;4825961;29;20186;-89
2022/10/03 02:26:23;;;;;;;8.05;1.60;;;;;;;11.80;100.00;101258.66;4827678;29;20038;-90
2022/10/03 02:29:05;;;;;;;5.47;1.70;;;;;;;11.79;100.00;101249.00;4805504;29;20069;-90
2022/10/03 02:31:38;;;;;;;7.80;2.00;;;;;;;11.76;100.00;101251.91;4806679;29;20081;-90
2022/10/03 02:34:32;;;;;;;8.50;1.90;;;;;;;11.73;100.00;101250.38;4837498;29;20053;-89
2022/10/03 02:37:38;;;;;;;6.43;1.70;;;;;;;11.72;100.00;101246.03;4812969;29;20053;-90
2022/10/03 02:40:40;;;;;;;12.38;1.73;;;;;;;11.72;100.00;101245.22;4803457;29;20043;-88
2022/10/03 02:43:47;;;;;;;8.27;1.75;;;;;;;11.71;100.00;101247.03;4819026;29;20046;-90
2022/10/03 02:46:21;;;;;;;8.25;2.25;;;;;;;11.73;100.00;101238.94;4810233;29;20120;-90
2022/10/03 02:49:18;;;;;;;8.60;2.28;;;;;;;11.77;100.00;101238.53;4803579;29;20045;-90
2022/10/03 02:52:15;;;;;;;4.82;1.50;;;;;;;11.75;100.00;101221.13;4820197;29;20036;-90
2022/10/03 02:54:56;;;;;;;7.50;1.80;;;;;;;11.74;100.00;101222.91;4833381;29;20114;-89
2022/10/03 02:57:50;;;;;;;6.50;1.85;;;;;;;11.73;100.00;101215.94;4827803;29;20049;-89
2022/10/03 03:00:48;;;;;;;11.60;2.65;;;;;;;11.66;100.00;101210.34;4801608;29;20049;-90
2022/10/03 03:03:55;;;;;;;6.60;1.70;;;;;;;11.61;100.00;101204.59;4808632;29;20428;-89
2022/10/03 03:06:25;;;;;;;;;;;;;;;11.48;100.00;101201.34;4829119;29;20149;-90
2022/10/03 03:09:17;;;;;;;5.78;2.00;;;;;;;11.53;100.00;101199.16;4837761;29;19917;-89
2022/10/03 03:12:28;;;;;;;10.07;2.00;;;;;;;11.55;100.00;101189.25;4841352;29;20038;-90
2022/10/03 03:15:35;;;;;;;11.98;2.22;;;;;;;11.47;100.00;101181.13;4769745;29;20061;-90
2022/10/03 03:18:18;;;;;;;10.43;1.90;;;;;;;11.44;100.00;101186.66;4819446;29;20032;-89
2022/10/03 03:21:04;;;;;;;12.88;1.50;;;;;;;11.41;100.00;101191.28;4825633;29;20049;-90
2022/10/03 03:23:48;;;;;;;9.50;2.13;;;;;;;11.39;100.00;101190.56;4844194;29;20052;-89
2022/10/03 03:26:42;;;;;;;5.60;1.40;;;;;;;11.39;100.00;101192.38;4841935;29;20042;-89
2022/10/03 03:29:50;;;;;;;7.15;1.83;;;;;;;11.38;100.00;101198.63;4828266;29;20522;-90
2022/10/03 03:32:28;;;;;;;10.70;2.78;;;;;;;11.38;100.00;101180.97;4851485;29;20075;-90
2022/10/03 03:35:24;;;;;;;4.05;1.52;;;;;;;11.42;100.00;101173.56;4817989;29;20090;-89
2022/10/03 03:37:53;;;;;;;8.87;2.53;;;;;;;11.41;100.00;101174.56;4840656;29;20396;-88
2022/10/03 03:40:31;;;;;;;3.63;1.10;;;;;;;11.44;100.00;101179.59;4829041;29;20459;-90
2022/10/03 03:43:38;;;;;;;5.13;1.30;;;;;;;11.48;100.00;101186.28;4817666;29;20079;-90
2022/10/03 03:46:22;;;;;;;7.50;1.15;;;;;;;11.49;100.00;101177.38;4818184;29;20037;-90
2022/10/03 03:48:58;;;;;;;6.85;1.60;;;;;;;11.55;100.00;101160.13;4827353;29;20153;-90
2022/10/03 03:51:41;;;;;;;6.60;1.42;;;;;;;11.58;100.00;101161.69;4814159;29;20038;-90
2022/10/03 03:54:27;;;;;;;5.40;1.25;;;;;;;11.59;100.00;101150.09;4842016;29;20108;-90
2022/10/03 03:57:22;;;;;;;11.60;1.60;;;;;;;11.55;100.00;101141.59;4812679;29;20045;-90
2022/10/03 04:00:01;;;;;;;10.38;1.45;;;;;;;11.50;100.00;101146.44;4841742;29;20042;-89
2022/10/03 04:02:44;;;;;;;8.20;1.63;;;;;;;11.49;100.00;101134.19;4838436;29;20098;-89
2022/10/03 04:05:18;;;;;;;8.05;1.63;;;;;;;11.49;100.00;101128.88;4827596;29;20030;-88
2022/10/03 04:08:12;;;;;;;8.20;1.65;;;;;;;11.46;100.00;101124.69;4843502;29;20487;-90
2022/10/03 04:11:15;;;;;;;9.70;1.42;;;;;;;11.40;100.00;101118.13;4813839;29;20075;-88
2022/10/03 04:14:21;;;;;;;8.80;1.67;;;;;;;11.35;100.00;101116.84;4841847;29;20078;-89
2022/10/03 04:20:16;;;;;;;7.40;1.20;;;;;;;11.24;100.00;101104.56;4835637;29;20037;-90
2022/10/03 04:23:18;;;;;;;6.63;1.02;;;;;;;11.19;100.00;101110.25;4813817;29;20046;-91
2022/10/03 04:26:22;;;;;;;8.48;1.40;;;;;;;11.14;100.00;101108.00;4826590;29;20048;-90
2022/10/03 04:28:50;;;;;;;14.02;1.75;;;;;;;11.13;100.00;101108.13;4809510;29;20030;-90
2022/10/03 04:31:45;;;;;;;6.72;1.58;;;;;;;11.13;100.00;101113.41;4813855;29;20076;-91
2022/10/03 04:34:50;;;;;;;13.05;2.25;;;;;;;11.09;100.00;101107.53;4827718;29;20049;-90
2022/10/03 04:37:27;;;;;;;11.27;1.05;;;;;;;11.08;100.00;101102.38;4823626;29;20041;-90
2022/10/03 04:40:27;;;;;;;11.88;1.48;;;;;;;11.09;100.00;101104.91;4826538;29;20069;-90
2022/10/03 04:43:06;;;;;;;7.05;1.67;;;;;;;11.12;100.00;101093.19;4853996;29;20078;-90
2022/10/03 04:45:45;;;;;;;6.85;1.27;;;;;;;11.13;100.00;101085.13;4841235;29;20041;-90
2022/10/03 04:48:27;;;;;;;5.40;1.23;;;;;;;11.17;100.00;101088.34;4814890;29;20511;-90
2022/10/03 04:51:03;;;;;;;8.32;1.23;;;;;;;11.18;100.00;101097.97;4833703;29;20050;-89
2022/10/03 04:54:14;;;;;;;9.20;1.25;;;;;;;11.19;100.00;101089.06;4825427;29;20061;-91
2022/10/03 04:57:00;;;;;;;7.07;1.40;;;;;;;11.20;100.00;101088.09;4827152;29;20110;-91
2022/10/03 04:59:55;;;;;;;12.27;1.55;;;;;;;11.21;100.00;101084.47;4805938;29;20125;-90
2022/10/03 05:02:45;;;;;;;13.63;1.42;;;;;;;11.22;100.00;101080.88;4803448;29;20432;-89
2022/10/03 05:05:18;;;;;;;9.52;1.42;;;;;;;11.26;100.00;101086.75;4827017;29;20121;-90
2022/10/03 05:07:58;;;;;;;6.68;1.15;;;;;;;11.29;100.00;101084.66;4820494;29;20048;-90
2022/10/03 05:10:45;;;;;;;10.55;1.40;;;;;;;11.29;100.00;101082.00;4836114;29;20046;-90
2022/10/03 05:13:40;;;;;;;9.88;1.55;;;;;;;11.29;100.00;101074.06;4840900;29;20045;-90
2022/10/03 05:16:16;;;;;;;9.10;1.25;;;;;;;11.31;100.00;101079.22;4818059;29;20132;-91
2022/10/03 05:19:25;;;;;;;9.63;1.40;;;;;;;11.30;100.00;101072.25;4828992;29;20042;-91
2022/10/03 05:22:04;;;;;;;11.95;1.27;;;;;;;11.31;100.00;101065.16;4822070;29;20142;-89
2022/10/03 05:24:45;;;;;;;10.38;1.52;;;;;;;11.28;100.00;101071.53;4819219;29;20513;-91
2022/10/03 05:27:32;;;;;;;13.10;2.00;;;;;;;11.25;100.00;101070.00;4821047;29;20040;-88
2022/10/03 05:30:24;;;;;;;8.52;1.25;;;;;;;11.26;100.00;101068.22;4822607;29;20041;-81
2022/10/03 05:33:35;;;;;;;16.33;1.73;;;;;;;11.21;100.00;101058.00;4820399;29;20038;-83
2022/10/03 05:36:18;;;;;;;13.15;1.70;;;;;;;11.23;100.00;101050.78;4812331;29;20408;-90
2022/10/03 05:39:25;;;;;;;9.00;1.55;;;;;;;11.22;100.00;101051.75;4817799;29;20046;-90
2022/10/03 05:42:25;;;;;;;9.02;1.33;;;;;;;11.25;100.00;101046.19;4831335;29;20060;-88
2022/10/03 05:45:24;;;;;;;11.57;1.13;;;;;;;11.25;100.00;101040.91;4826086;29;20411;-89
2022/10/03 05:48:23;;;;;;;6.50;1.08;;;;;;;11.28;100.00;101042.44;4833706;29;20046;-89
2022/10/03 05:51:00;;;;;;;9.45;1.52;;;;;;;11.28;100.00;101040.63;4825603;29;20030;-90
2022/10/03 05:54:06;;;;;;;8.10;1.30;;;;;;;11.29;100.00;101044.94;4814032;29;20557;-90
2022/10/03 05:56:44;;;;;;;7.65;1.13;;;;;;;11.30;100.00;101048.44;4805865;29;20075;-90
2022/10/03 05:59:37;;;;;;;15.45;1.55;;;;;;;11.30;100.00;101048.44;4834719;29;20049;-90
2022/10/03 06:02:07;;;;;;;13.60;1.48;;;;;;;11.31;100.00;101044.00;4813818;29;20046;-90
2022/10/03 06:05:17;;;;;;;14.52;1.67;;;;;;;11.31;100.00;101042.16;4824075;29;20068;-90
2022/10/03 06:08:33;;;;;;;8.00;1.35;;;;;;;11.30;100.00;101035.22;4791365;29;20462;-90
2022/10/03 06:11:10;;;;;;;;;;;;;;;11.22;100.00;101035.88;4819164;29;20130;-90
2022/10/03 06:13:53;;;;;;;11.40;1.50;;;;;;;11.28;100.00;101031.84;4815283;29;20311;-90
2022/10/03 06:16:41;;;;;;;11.02;2.58;;;;;;;11.30;100.00;101032.56;4821192;29;20054;-89
2022/10/03 06:19:41;;;;;;;10.70;1.15;;;;;;;11.32;100.00;101037.72;4821979;29;20098;-89
2022/10/03 06:22:32;;;;;;;13.70;1.58;;;;;;;11.32;100.00;101037.72;4813401;29;20053;-89
2022/10/03 06:25:24;;;;;;;13.95;2.05;;;;;;;11.30;100.00;101045.78;4821998;29;20038;-89
2022/10/03 06:28:19;;;;;;;11.00;1.85;;;;;;;11.34;100.00;101044.53;4822405;29;20093;-89
2022/10/03 06:31:22;;;;;;;8.48;1.20;;;;;;;11.32;100.00;101038.56;4794067;29;20104;-89
2022/10/03 06:34:00;;;;;;;8.23;1.35;;;;;;;11.35;100.00;101048.88;4794969;29;20467;-90
2022/10/03 06:37:01;;;;;;;13.15;2.40;;;;;;;11.35;100.00;101043.59;4824088;29;20037;-91
2022/10/03 06:40:22;;;;;;;10.68;1.23;;;;;;;11.35;100.00;101040.09;4821340;29;20486;-90
2022/10/03 06:43:36;;;;;;;11.35;1.65;;;;;;;11.33;100.00;101045.53;4823729;29;20050;-90
2022/10/03 06:46:14;;;;;;;10.90;1.80;;;;;;;11.34;100.00;101047.19;4778628;29;20053;-89
2022/10/03 06:48:51;;;;;;;5.80;0.90;;;;;;;11.35;100.00;101046.25;4823530;29;20054;-89
2022/10/03 06:51:36;;;;;;;14.48;1.30;;;;;;;11.38;100.00;101047.75;4824658;29;20041;-90
2022/10/03 06:54:04;;;;;;;9.75;1.42;;;;;;;11.36;100.00;101037.31;4823548;29;20126;-90
2022/10/03 06:57:14;;;;;;;10.38;1.38;;;;;;;11.37;100.00;101041.63;4809772;29;20046;-89
2022/10/03 06:59:53;;;;;;;12.20;1.50;;;;;;;11.39;100.00;101037.03;4797979;29;20056;-89
2022/10/03 07:02:25;;;;;;;10.02;1.55;;;;;;;11.39;100.00;101041.50;4812116;29;20030;-89
2022/10/03 07:05:23;;;;;;;12.45;1.45;;;;;;;11.40;100.00;101035.25;4824064;29;20491;-89
2022/10/03 07:07:54;;;;;;;18.10;1.75;;;;;;;11.41;100.00;101035.09;4809272;29;20720;-89
2022/10/03 07:10:34;;;;;;;11.35;1.50;;;;;;;11.47;100.00;101043.47;4811579;29;20042;-84
2022/10/03 07:13:05;;;;;;;17.40;2.15;;;;;;;11.48;100.00;101040.69;4805996;29;20125;-90
2022/10/03 07:15:42;;;;;;;10.00;1.42;;;;;;;11.52;100.00;101042.09;4826512;29;20133;-90
2022/10/03 07:18:36;;;;;;;15.30;1.35;;;;;;;11.54;100.00;101037.50;4839643;29;20053;-90
2022/10/03 07:21:32;;;;;;;13.57;1.50;;;;;;;11.58;100.00;101038.06;4824473;29;20040;-90
2022/10/03 07:24:19;;;;;;;7.88;1.13;;;;;;;11.56;100.00;101037.38;4841461;29;20065;-91
2022/10/03 07:27:04;;;;;;;15.10;1.70;;;;;;;11.61;100.00;101039.63;4825286;29;20216;-89
2022/10/03 07:30:21;;;;;;;13.90;1.55;;;;;;;11.63;100.00;101032.34;4807970;29;20053;-91
2022/10/03 07:33:26;;;;;;;10.65;1.55;;;;;;;11.65;100.00;101035.72;4796021;29;20045;-90
2022/10/03 07:39:46;;;;;;;9.45;1.30;;;;;;;11.73;100.00;101043.81;4828405;29;20112;-89
2022/10/03 07:42:28;;;;;;;9.13;1.30;;;;;;;11.78;100.00;101035.47;4838101;29;20074;-89
2022/10/03 07:45:22;;;;;;;16.73;1.88;;;;;;;11.79;100.00;101030.03;4825798;29;20495;-90
2022/10/03 07:48:01;;;;;;;8.50;1.38;;;;;;;11.79;100.00;101026.53;4841464;29;20046;-89
2022/10/03 07:51:09;;;;;;;6.25;1.35;;;;;;;11.77;100.00;101021.38;4811883;29;20133;-88
2022/10/03 07:53:54;;;;;;;18.48;1.67;;;;;;;11.79;100.00;101016.78;4812102;29;20046;-90
2022/10/03 07:56:59;;;;;;;14.95;1.73;;;;;;;11.82;100.00;101017.47;4837926;29;20041;-90
2022/10/03 08:00:08;;;;;;;12.55;1.30;;;;;;;11.85;100.00;101015.38;4843856;29;20137;-91
2022/10/03 08:03:01;;;;;;;17.92;1.73;;;;;;;11.89;100.00;101008.00;4806274;29;20046;-89
2022/10/03 08:05:58;;;;;;;12.65;1.95;;;;;;;11.91;100.00;100998.91;4811982;29;20060;-89
2022/10/03 08:08:59;;;;;;;15.18;1.95;;;;;;;11.96;100.00;100997.69;4788939;29;20364;-91
2022/10/03 08:11:53;;;;;;;20.65;1.70;;;;;;;11.96;100.00;100995.84;4786833;29;20041;-88
2022/10/03 08:14:41;;;;;;;13.63;1.48;;;;;;;11.98;100.00;100995.72;4812712;29;20124;-89
2022/10/03 08:17:27;;;;;;;11.63;2.13;;;;;;;12.00;100.00;100994.63;4811763;29;20090;-88
2022/10/03 08:20:06;;;;;;;18.48;1.42;;;;;;;12.03;100.00;100982.88;4841110;29;20034;-89
2022/10/03 08:22:56;;;;;;;16.00;1.85;;;;;;;12.03;100.00;100980.25;4811997;29;20091;-88
2022/10/03 08:26:10;;;;;;;18.00;1.73;;;;;;;12.04;100.00;100977.44;4825999;29;20041;-90
2022/10/03 08:29:07;;;;;;;10.57;1.52;;;;;;;12.07;100.00;100972.84;4816854;29;20153;-90
2022/10/03 08:31:40;;;;;;;;;;;;;;;12.00;100.00;100968.13;4841051;29;20045;-88
2022/10/03 08:34:34;;;;;;;10.55;1.55;;;;;;;12.09;100.00;100966.47;4825887;29;20389;-90
2022/10/03 08:37:11;;;;;;;17.33;1.90;;;;;;;12.14;100.00;100963.38;4794088;29;20037;-89
2022/10/03 08:39:59;;;;;;;9.52;1.38;;;;;;;12.18;100.00;100963.94;4809239;29;20165;-90
2022/10/03 08:42:35;;;;;;;12.07;1.38;;;;;;;12.20;100.00;100954.84;4811560;29;20050;-90
2022/10/03 08:45:04;;;;;;;18.00;1.90;;;;;;;12.23;100.00;100946.63;4841656;29;20040;-90
2022/10/03 08:48:15;;;;;;;12.52;1.52;;;;;;;12.26;100.00;100950.81;4825511;29;20129;-91
2022/10/03 08:50:46;;;;;;;10.27;1.55;;;;;;;12.28;100.00;100952.34;4813526;29;20499;-89
2022/10/03 08:53:41;;;;;;;12.75;2.03;;;;;;;12.33;100.00;100948.41;4808823;29;20630;-90
2022/10/03 08:56:32;;;;;;;15.05;2.58;;;;;;;12.37;100.00;100952.47;4841282;29;20037;-90
2022/10/03 08:59:29;;;;;;;10.88;2.30;;;;;;;12.42;100.00;100944.09;4856000;29;20076;-92
2022/10/03 09:02:18;;;;;;;10.80;1.30;;;;;;;12.48;100.00;100946.16;4823276;29;20110;-89
2022/10/03 09:05:24;;;;;;;15.35;1.60;;;;;;;12.52;100.00;100934.25;4824504;29;20068;-90
2022/10/03 09:08:20;;;;;;;12.55;1.90;;;;;;;12.59;100.00;100939.84;4797878;29;20552;-89
2022/10/03 09:10:55;;;;;;;;;;;;;;;12.55;100.00;100927.84;4810396;29;20042;-89
2022/10/03 09:13:54;;;;;;;7.43;1.23;;;;;;;12.65;100.00;100908.28;4798410;29;19992;-90
2022/10/03 09:16:43;;;;;;;21.38;2.75;;;;;;;12.71;100.00;100906.84;4838813;29;20096;-92
2022/10/03 09:19:34;;;;;;;13.18;1.77;;;;;;;12.77;100.00;100905.44;4841766;29;20040;-91
2022/10/03 09:22:33;;;;;;;11.02;1.50;;;;;;;12.85;100.00;100916.13;4811285;29;20041;-90
2022/10/03 09:25:20;;;;;;;12.30;1.52;;;;;;;12.92;100.00;100924.31;4792997;29;20472;-88
2022/10/03 09:28:00;;;;;;;22.38;1.85;;;;;;;12.98;100.00;100915.75;4824426;29;20049;-89
2022/10/03 09:30:38;;;;;;;11.68;1.45;;;;;;;13.02;100.00;100916.31;4825008;29;20530;-91
2022/10/03 09:33:38;;;;;;;12.68;1.58;;;;;;;13.07;100.00;100922.03;4826819;29;20046;-89
2022/10/03 09:36:32;;;;;;;13.13;2.08;;;;;;;13.16;100.00;100912.31;4839941;29;20042;-89
2022/10/03 09:39:26;;;;;;;14.15;1.67;;;;;;;13.24;100.00;100919.53;4825928;29;20041;-90
2022/10/03 09:41:59;;;;;;;12.15;1.52;;;;;;;13.33;100.00;100915.16;4836832;29;20151;-89
2022/10/03 09:44:44;;;;;;;11.25;1.23;;;;;;;13.42;100.00;100908.94;4809816;29;20033;-90
2022/10/03 09:47:54;;;;;;;19.02;2.50;;;;;;;13.46;100.00;100899.66;4822906;29;20080;-90
2022/10/03 09:50:54;;;;;;;12.65;1.73;;;;;;;13.55;100.00;100905.94;4807682;29;20038;-89
2022/10/03 09:53:33;;;;;;;14.20;1.40;;;;;;;13.59;100.00;100906.44;4807008;29;20034;-89
2022/10/03 09:56:08;;;;;;;13.65;1.65;;;;;;;13.61;100.00;100889.38;4842094;29;20045;-91
2022/10/03 09:58:45;;;;;;;13.77;1.77;;;;;;;13.62;100.00;100888.38;4809008;29;20046;-90
2022/10/03 10:01:41;;;;;;;17.58;2.03;;;;;;;13.67;100.00;100884.41;4828114;29;20125;-89
2022/10/03 10:04:30;;;;;;;19.77;2.20;;;;;;;13.71;100.00;100880.47;4811616;29;20520;-90
2022/10/03 10:07:22;;;;;;;10.57;1.73;;;;;;;13.74;100.00;100875.66;4844121;29;20045;-89
2022/10/03 10:10:12;;;;;;;13.70;1.80;;;;;;;13.81;100.00;100885.72;4838290;29;20042;-89
2022/10/03 10:13:30;;;;;;;10.18;1.60;;;;;;;13.83;100.00;100881.06;4842009;29;20048;-90
2022/10/03 10:16:14;;;;;;;11.90;1.90;;;;;;;13.86;100.00;100868.31;4799936;29;20046;-89
2022/10/03 10:18:57;;;;;;;12.57;1.55;;;;;;;13.88;100.00;100858.34;4825679;29;20526;-90
2022/10/03 10:21:25;;;;;;;8.45;1.58;;;;;;;13.92;100.00;100855.38;4791459;29;20057;-90
2022/10/03 10:24:18;;;;;;;9.23;1.73;;;;;;;13.94;100.00;100853.38;4839419;29;20060;-89
2022/10/03 10:27:17;;;;;;;10.30;1.38;;;;;;;13.94;100.00;100856.03;4837226;29;20049;-91
2022/10/03 10:30:20;;;;;;;10.45;1.48;;;;;;;13.97;100.00;100845.09;4823173;29;20052;-90
2022/10/03 10:33:00;;;;;;;12.32;1.17;;;;;;;13.99;100.00;100849.28;4811257;29;20128;-92
2022/10/03 10:35:35;;;;;;;13.18;1.63;;;;;;;14.06;100.00;100843.34;4797029;29;20071;-91
2022/10/03 10:38:25;;;;;;;11.13;1.73;;;;;;;14.06;100.00;100841.53;4825666;29;20065;-91
2022/10/03 10:41:17;;;;;;;11.70;1.35;;;;;;;14.17;100.00;100834.25;4843014;29;20049;-90
2022/10/03 10:43:50;;;;;;;11.98;1.20;;;;;;;14.25;100.00;100827.13;4824732;29;20046;-90
2022/10/03 10:46:26;;;;;;;10.80;1.73;;;;;;;14.32;100.00;100831.81;4825714;29;20049;-91
2022/10/03 10:49:38;;;;;;;;;;;;;;;14.28;100.00;100831.31;4811087;29;20056;-91
2022/10/03 10:52:52;;;;;;;13.13;1.98;;;;;;;14.44;100.00;100825.25;4793318;29;19917;-92
2022/10/03 10:56:07;;;;;;;15.48;1.73;;;;;;;14.50;100.00;100821.09;4813594;29;20052;-91
2022/10/03 10:58:39;;;;;;;9.02;1.58;;;;;;;14.55;100.00;100825.94;4812280;29;20045;-91
2022/10/03 11:01:54;;;;;;;12.52;1.77;;;;;;;14.57;100.00;100831.94;4822648;29;20047;-91
2022/10/03 11:05:12;;;;;;;6.40;1.48;;;;;;;14.51;100.00;100834.25;4769208;29;20048;-91
2022/10/03 11:08:20;;;;;;;12.68;1.63;;;;;;;14.51;100.00;100834.25;4827085;29;20045;-90
2022/10/03 11:10:51;;;;;;;15.48;2.03;;;;;;;14.51;100.00;100844.03;4802566;29;20133;-90
2022/10/03 11:13:59;;;;;;;12.45;1.20;;;;;;;14.54;100.00;100835.72;4827276;29;20038;-90
2022/10/03 11:16:47;;;;;;;18.10;1.83;;;;;;;14.52;100.00;100840.41;4810652;29;20033;-90
2022/10/03 11:19:40;;;;;;;12.05;2.03;;;;;;;14.55;100.00;100836.56;4824829;29;20042;-90
2022/10/03 11:22:14;;;;;;;12.70;1.77;;;;;;;14.48;100.00;100829.25;4809421;29;20039;-90
2022/10/03 11:25:08;;;;;;;10.30;1.80;;;;;;;14.50;100.00;100821.09;4828169;29;20060;-91
2022/10/03 11:28:01;;;;;;;15.43;1.63;;;;;;;14.51;100.00;100828.91;4864110;29;20038;-90
2022/10/03 11:30:48;;;;;;;8.27;1.40;;;;;;;14.51;100.00;100812.97;4798220;29;20053;-89
2022/10/03 11:33:44;;;;;;;8.35;1.70;;;;;;;14.58;100.00;100809.66;4826825;29;20086;-90
2022/10/03 11:36:32;;;;;;;11.20;1.35;;;;;;;14.66;100.00;100801.69;4811156;29;20177;-91
2022/10/03 11:39:13;;;;;;;16.15;1.42;;;;;;;14.76;100.00;100798.91;4812884;29;20038;-89
2022/10/03 11:41:56;;;;;;;10.80;1.70;;;;;;;14.84;100.00;100785.63;4827224;29;20457;-90
2022/10/03 11:44:33;;;;;;;15.02;1.92;;;;;;;14.94;100.00;100789.97;4810174;29;20052;-88
2022/10/03 11:47:39;;;;;;;7.70;1.40;;;;;;;14.96;100.00;100780.81;4810039;29;20525;-90
2022/10/03 11:50:30;;;;;;;9.15;1.40;;;;;;;14.96;100.00;100786.16;4828366;29;20482;-88
2022/10/03 11:53:17;;;;;;;9.50;1.67;;;;;;;14.93;100.00;100772.31;4810466;29;20137;-90
2022/10/03 11:55:55;;;;;;;12.70;2.30;;;;;;;14.98;100.00;100773.50;4799703;29;20049;-89
2022/10/03 11:58:46;;;;;;;12.52;1.52;;;;;;;15.09;100.00;100771.50;4849492;29;20041;-90
2022/10/03 12:01:49;;;;;;;10.13;1.77;;;;;;;15.16;100.00;100761.84;4844407;29;20037;-89
2022/10/03 12:04:46;;;;;;;11.32;1.65;;;;;;;15.20;100.00;100757.03;4821561;29;20042;-88
2022/10/03 12:10:54;;;;;;;8.98;1.20;;;;;;;15.20;100.00;100746.38;4827153;29;20483;-90
2022/10/03 12:14:05;;;;;;;9.48;1.45;;;;;;;15.22;100.00;100749.72;4842643;29;20095;-90
2022/10/03 12:16:58;;;;;;;13.85;1.40;;;;;;;15.31;100.00;100740.72;4809411;29;20042;-92
2022/10/03 12:19:51;;;;;;;10.13;1.25;;;;;;;15.31;100.00;100734.53;4828022;29;20038;-89
2022/10/03 12:22:40;;;;;;;13.38;1.42;;;;;;;15.30;100.00;100736.41;4843135;29;20050;-90
2022/10/03 12:25:20;;;;;;;13.55;2.50;;;;;;;15.38;100.00;100731.03;4811666;29;20080;-90
2022/10/03 12:28:00;;;;;;;13.93;1.35;;;;;;;15.40;100.00;100730.06;4813535;29;20054;-91
2022/10/03 12:30:40;;;;;;;14.20;1.60;;;;;;;15.36;100.00;100722.41;4827459;29;20041;-89
2022/10/03 12:33:38;;;;;;;9.20;1.35;;;;;;;15.35;100.00;100717.25;4858766;29;20034;-91
2022/10/03 12:36:15;;;;;;;6.00;1.40;;;;;;;15.39;100.00;100726.53;4812545;29;20038;-90
2022/10/03 12:38:51;;;;;;;9.07;1.20;;;;;;;15.39;100.00;100726.53;4827309;29;21159;-89
2022/10/03 12:41:30;;;;;;;8.70;1.35;;;;;;;15.38;100.00;100724.91;4839177;29;20054;-91
2022/10/03 12:44:04;;;;;;;6.88;0.88;;;;;;;15.38;100.00;100730.22;4813740;29;20046;-90
2022/10/03 12:46:42;;;;;;;11.48;1.52;;;;;;;15.41;100.00;100724.56;4815137;29;20042;-89
2022/10/03 12:49:22;;;;;;;13.00;1.33;;;;;;;15.41;100.00;100718.38;4827145;29;20041;-89
2022/10/03 12:51:56;;;;;;;9.48;0.82;;;;;;;15.43;100.00;100709.22;4824302;29;20038;-89
2022/10/03 12:54:43;;;;;;;6.75;0.95;;;;;;;15.39;100.00;100707.91;4810225;29;20069;-90
2022/10/03 12:57:41;;;;;;;6.22;0.95;;;;;;;15.39;100.00;100707.91;4809551;29;20054;-89
2022/10/03 13:00:21;;;;;;;5.22;0.65;;;;;;;15.40;100.00;100703.41;4823949;29;20038;-90
2022/10/03 13:03:16;;;;;;;4.72;0.82;;;;;;;15.44;100.00;100704.72;4824448;29;20424;-90
2022/10/03 13:06:05;;;;;;;3.72;0.95;;;;;;;15.51;100.00;100713.72;4819886;29;20054;-88
2022/10/03 13:08:47;;;;;;;7.55;1.00;;;;;;;15.56;100.00;100710.53;4810371;29;20142;-89